Погода Бейкерсфилдна неделю

Калифорния, США

01 - 07 сентября
  • 01сентября
    Сегодня
    +15°
    +29°
    Ясно и безоблачно
    ВремяПогодаТемператураВлажностьДавлениеВетер, м/сВероятность осадков
    02:00Ясно и безоблачно+20°C36 %749 мм3.3 м/с2 %
    05:00Ясно и безоблачно+17°C53 %749 мм1.6 м/с2 %
    08:00Ясно и безоблачно+16°C58 %751 мм2.5 м/с2 %
    11:00Ясно и безоблачно+22°C39 %751 мм2.5 м/с2 %
    14:00Ясно и безоблачно+27°C26 %750 мм4.0 м/с2 %
    17:00Ясно и безоблачно+29°C22 %748 мм4.9 м/с2 %
    20:00Ясно и безоблачно+24°C31 %748 мм3.8 м/с2 %
    23:00Ясно и безоблачно+20°C36 %750 мм2.7 м/с2 %
  • 02сентября
    Среда
    +16°
    +28°
    Ясно и безоблачно
    ВремяПогодаТемператураВлажностьДавлениеВетер, м/сВероятность осадков
    02:00Ясно и безоблачно+17°C51 %751 мм2.5 м/с2 %
    05:00Ясно и безоблачно+16°C62 %751 мм0.5 м/с2 %
    08:00Ясно и безоблачно+16°C60 %752 мм1.7 м/с2 %
    11:00Ясно и безоблачно+21°C41 %752 мм1.9 м/с2 %
    14:00Ясно и безоблачно+26°C29 %751 мм3.4 м/с2 %
    17:00Ясно и безоблачно+27°C25 %749 мм4.5 м/с2 %
    20:00Ясно и безоблачно+24°C33 %749 мм2.2 м/с2 %
    23:00Ясно и безоблачно+22°C33 %749 мм2.0 м/с2 %
  • 03сентября
    Четверг
    +17°
    +29°
    Ясно и безоблачно
    ВремяПогодаТемператураВлажностьДавлениеВетер, м/сВероятность осадков
    02:00Ясно и безоблачно+18°C53 %750 мм2.5 м/с2 %
    05:00Ясно и безоблачно+17°C61 %750 мм0.9 м/с2 %
    08:00Ясно и безоблачно+18°C63 %750 мм2.2 м/с2 %
    11:00Ясно и безоблачно+23°C44 %750 мм2.0 м/с2 %
    14:00Ясно и безоблачно+28°C31 %748 мм3.3 м/с2 %
    17:00Ясно и безоблачно+29°C26 %746 мм4.8 м/с2 %
    20:00Ясно и безоблачно+26°C34 %746 мм2.5 м/с2 %
    23:00Ясно и безоблачно+22°C37 %747 мм3.4 м/с2 %
  • 04сентября
    Пятница
    +17°
    +30°
    Ясно и безоблачно
    ВремяПогодаТемператураВлажностьДавлениеВетер, м/сВероятность осадков
    02:00Ясно и безоблачно+19°C61 %747 мм2.2 м/с2 %
    05:00Ясно и безоблачно+17°C69 %748 мм0.6 м/с2 %
    08:00Ясно и безоблачно+19°C66 %749 мм1.7 м/с2 %
    11:00Ясно и безоблачно+23°C47 %749 мм2.0 м/с2 %
    14:00Ясно и безоблачно+28°C34 %748 мм3.6 м/с2 %
    17:00Ясно и безоблачно+29°C30 %746 мм4.4 м/с2 %
    20:00Ясно и безоблачно+26°C39 %746 мм2.6 м/с2 %
    23:00Ясно и безоблачно+22°C45 %748 мм2.5 м/с2 %
  • 05сентября
    Суббота
    +18°
    +32°
    Ясно и безоблачно
    ВремяПогодаТемператураВлажностьДавлениеВетер, м/сВероятность осадков
    02:00Ясно и безоблачно+19°C53 %749 мм2.5 м/с2 %
    05:00Ясно и безоблачно+18°C60 %749 мм0.6 м/с2 %
    08:00Ясно и безоблачно+19°C55 %750 мм2.0 м/с2 %
    11:00Ясно и безоблачно+24°C37 %750 мм1.8 м/с7 %
    14:00Ясно и безоблачно+30°C25 %748 мм3.4 м/с7 %
    17:00Ясно и безоблачно+31°C23 %747 мм4.6 м/с10 %
    20:00Ясно и безоблачно+27°C32 %747 мм3.6 м/с14 %
    23:00Ясно и безоблачно+23°C35 %749 мм3.2 м/с11 %
  • 06сентября
    Воскресенье
    +19°
    +32°
    Ясно и безоблачно
    ВремяПогодаТемператураВлажностьДавлениеВетер, м/сВероятность осадков
    05:00Ясно и безоблачно+19°C52 %749 мм0.8 м/с20 %
    11:00Ясно и безоблачно+25°C34 %750 мм1.6 м/с31 %
    17:00Ясно и безоблачно+31°C30 %747 мм4.0 м/с28 %
    23:00Ясно и безоблачно+25°C34 %749 мм1.6 м/с23 %
  • 07сентября
    Понедельник
    +19°
    +32°
    Ясно и безоблачно
    ВремяПогодаТемператураВлажностьДавлениеВетер, м/сВероятность осадков
    05:00Ясно и безоблачно+20°C55 %750 мм1.3 м/с19 %
    11:00Ясно и безоблачно+25°C35 %750 мм1.6 м/с21 %
    17:00Ясно и безоблачно+32°C20 %748 мм2.5 м/с19 %
    23:00Ясно и безоблачно+24°C35 %748 мм1.5 м/с13 %
Мы используем cookies
Соглашаюсь